Time;durP1;ratioP1;P1;durP2;ratioP2;P2;SDS_P1;SDS_P2;PMS_P1;PMS_P2;Temp;Humidity;BMP_temperature;BMP_pressure;BME280_temperature;BME280_humidity;BME280_pressure;Samples;Min_cycle;Max_cycle;Signal;HPM_P1;HPM_P2
2024/01/04 00:01:34;;;;;;;2.27;1.13;;;;;;;9.34;62.82;98700.50;4995725;28;96654;-51
2024/01/04 00:04:00;;;;;;;1.70;1.40;;;;;;;9.33;62.89;98704.53;4992033;28;98493;-51
2024/01/04 00:06:25;;;;;;;4.63;1.50;;;;;;;9.35;62.92;98704.69;4994527;28;97275;-50
2024/01/04 00:08:50;;;;;;;3.13;1.23;;;;;;;9.33;62.87;98696.25;4992180;28;96625;-50
2024/01/04 00:11:16;;;;;;;4.70;1.53;;;;;;;9.30;62.92;98691.81;4994373;28;96777;-51
2024/01/04 00:13:41;;;;;;;2.17;1.00;;;;;;;9.27;63.00;98704.00;4993946;28;97890;-50
2024/01/04 00:16:13;;;;;;;1.70;1.10;;;;;;;9.27;62.81;98709.50;4998800;28;98322;-51
2024/01/04 00:18:38;;;;;;;1.57;0.97;;;;;;;9.28;62.95;98710.97;4994552;28;97470;-50
2024/01/04 00:21:03;;;;;;;2.50;0.80;;;;;;;9.27;62.87;98712.25;4998271;28;96976;-51
2024/01/04 00:23:31;;;;;;;2.70;0.80;;;;;;;9.25;62.95;98712.09;4993470;28;97403;-51
2024/01/04 00:25:57;;;;;;;1.60;1.03;;;;;;;9.20;62.96;98713.75;4995614;28;97474;-50
2024/01/04 00:28:22;;;;;;;2.57;0.80;;;;;;;9.18;63.09;98719.09;4996236;28;96718;-51
2024/01/04 00:30:47;;;;;;;1.40;1.10;;;;;;;9.19;63.09;98719.78;4996114;28;97176;-50
2024/01/04 00:33:13;;;;;;;1.77;1.00;;;;;;;9.20;63.18;98721.28;4994745;28;97113;-51
2024/01/04 00:35:38;;;;;;;1.03;0.90;;;;;;;9.20;63.30;98726.78;4998425;28;97053;-50
2024/01/04 00:38:03;;;;;;;2.20;0.80;;;;;;;9.19;63.05;98723.28;4996021;28;100159;-50
2024/01/04 00:40:29;;;;;;;0.80;0.80;;;;;;;9.18;62.92;98724.59;4995742;28;96930;-51
2024/01/04 00:42:54;;;;;;;1.40;0.97;;;;;;;9.17;63.08;98727.91;4995676;28;98420;-50
2024/01/04 00:45:20;;;;;;;2.37;0.90;;;;;;;9.14;63.11;98735.28;4997314;28;100364;-51
2024/01/04 00:47:45;;;;;;;2.30;0.90;;;;;;;9.11;63.05;98749.41;4995888;28;97001;-51
2024/01/04 00:50:11;;;;;;;2.80;1.30;;;;;;;9.10;62.98;98729.38;4994017;28;96730;-51
2024/01/04 00:52:36;;;;;;;5.03;0.87;;;;;;;9.10;63.00;98734.16;4996349;28;97543;-51
2024/01/04 00:55:01;;;;;;;1.30;1.20;;;;;;;9.08;63.19;98731.94;4995685;28;108270;-50
2024/01/04 00:57:26;;;;;;;1.43;1.00;;;;;;;9.06;63.25;98728.25;4994736;28;97378;-51
2024/01/04 00:59:52;;;;;;;0.90;0.80;;;;;;;9.05;63.23;98737.84;4996490;28;96804;-50
2024/01/04 01:02:17;;;;;;;1.53;0.90;;;;;;;9.02;63.11;98738.94;4994620;28;98598;-50
2024/01/04 01:04:42;;;;;;;2.00;0.90;;;;;;;9.02;63.11;98741.69;4996345;28;106457;-51
2024/01/04 01:07:08;;;;;;;1.33;0.93;;;;;;;9.02;63.19;98742.44;4995021;28;97414;-50
2024/01/04 01:09:33;;;;;;;0.93;0.70;;;;;;;9.01;63.27;98740.97;4996542;28;97176;-51
2024/01/04 01:11:58;;;;;;;1.70;1.10;;;;;;;9.01;63.23;98749.25;4994599;28;97208;-50
2024/01/04 01:14:23;;;;;;;1.10;0.90;;;;;;;9.04;63.16;98752.91;4993117;28;103569;-51
2024/01/04 01:16:49;;;;;;;1.77;0.80;;;;;;;9.04;63.23;98755.66;4996589;28;96983;-51
2024/01/04 01:19:14;;;;;;;1.97;1.17;;;;;;;9.01;63.21;98763.03;4997522;28;96991;-51
2024/01/04 01:21:41;;;;;;;1.17;1.07;;;;;;;9.01;63.23;98759.53;4994012;28;96714;-51
2024/01/04 01:24:06;;;;;;;0.80;0.80;;;;;;;9.02;63.19;98767.25;4995418;28;97015;-50
2024/01/04 01:26:31;;;;;;;1.57;1.13;;;;;;;9.02;63.30;98774.78;4992924;28;97399;-51
2024/01/04 01:28:57;;;;;;;2.97;1.00;;;;;;;9.05;63.23;98776.47;4993402;28;103737;-50
2024/01/04 01:31:22;;;;;;;1.13;1.00;;;;;;;9.06;63.48;98784.16;4993955;28;97556;-51
2024/01/04 01:33:47;;;;;;;1.10;1.03;;;;;;;9.07;63.20;98793.19;4994486;28;106563;-51
2024/01/04 01:36:13;;;;;;;1.00;0.90;;;;;;;9.06;63.31;98789.69;4994944;28;97770;-51
2024/01/04 01:38:38;;;;;;;3.10;1.20;;;;;;;9.09;63.29;98799.63;4996234;28;97103;-51
2024/01/04 01:41:03;;;;;;;0.60;0.60;;;;;;;9.10;63.52;98800.38;4993212;28;96710;-51
2024/01/04 01:43:29;;;;;;;1.10;0.87;;;;;;;9.10;63.17;98811.41;4992640;28;97040;-51
2024/01/04 01:45:54;;;;;;;1.30;1.00;;;;;;;9.09;63.44;98804.41;4997191;28;96656;-51
2024/01/04 01:48:19;;;;;;;1.17;0.87;;;;;;;9.07;63.31;98812.50;4992910;28;97038;-51
2024/01/04 01:50:45;;;;;;;1.00;0.87;;;;;;;9.08;63.41;98811.22;4995714;28;97043;-51
2024/01/04 01:53:11;;;;;;;1.37;0.77;;;;;;;9.08;63.50;98836.75;4993725;28;96723;-51
2024/01/04 01:55:37;;;;;;;0.97;0.80;;;;;;;9.11;63.38;98816.38;4995745;28;97196;-51
2024/01/04 01:58:03;;;;;;;0.70;0.70;;;;;;;9.13;63.50;98824.81;4995349;28;97036;-51
2024/01/04 02:00:28;;;;;;;0.90;0.80;;;;;;;9.14;63.44;98826.31;4996534;28;97390;-51
2024/01/04 02:02:54;;;;;;;0.97;0.90;;;;;;;9.12;63.26;98825.38;4995302;28;97079;-51
2024/01/04 02:05:20;;;;;;;1.17;1.07;;;;;;;9.09;63.41;98838.25;4989610;28;96556;-51
2024/01/04 02:07:45;;;;;;;0.87;0.87;;;;;;;9.06;63.43;98841.34;4992916;28;97049;-51
2024/01/04 02:10:11;;;;;;;1.50;1.40;;;;;;;9.00;63.40;98835.28;4992029;28;97482;-51
2024/01/04 02:12:37;;;;;;;1.30;1.20;;;;;;;8.95;63.66;98842.44;4992515;28;97623;-51
2024/01/04 02:15:03;;;;;;;1.40;1.30;;;;;;;8.90;63.59;98848.13;4996266;28;97289;-51
2024/01/04 02:17:29;;;;;;;3.53;1.90;;;;;;;8.85;63.47;98841.50;4996691;28;97118;-51
2024/01/04 02:19:56;;;;;;;1.43;1.30;;;;;;;8.83;63.57;98844.09;4997137;28;97554;-51
2024/01/04 02:22:22;;;;;;;1.20;0.97;;;;;;;8.83;63.39;98852.34;4994331;28;96664;-51
2024/01/04 02:24:47;;;;;;;2.17;1.20;;;;;;;8.83;63.42;98854.38;4994275;28;97989;-51
2024/01/04 02:27:13;;;;;;;1.40;0.87;;;;;;;8.82;63.43;98861.91;4997459;28;97501;-51
2024/01/04 02:29:38;;;;;;;2.00;1.10;;;;;;;8.77;63.50;98856.56;4993910;28;96651;-51
2024/01/04 02:32:04;;;;;;;2.20;1.20;;;;;;;8.77;63.54;98862.81;4993861;28;97756;-51
2024/01/04 02:34:30;;;;;;;1.47;1.30;;;;;;;8.74;63.33;98879.69;4997246;28;96977;-51
2024/01/04 02:36:55;;;;;;;1.30;1.20;;;;;;;8.70;63.42;98871.06;4995845;28;96818;-51
2024/01/04 02:39:21;;;;;;;2.03;0.90;;;;;;;8.72;63.51;98882.28;4993776;28;97121;-51
2024/01/04 02:41:47;;;;;;;1.87;1.43;;;;;;;8.72;63.17;98877.50;4994498;28;101031;-51
2024/01/04 02:44:13;;;;;;;2.47;1.40;;;;;;;8.68;63.30;98887.41;4994872;28;96939;-51
2024/01/04 02:46:38;;;;;;;3.43;1.23;;;;;;;8.62;63.30;98884.09;4991655;28;97144;-51
2024/01/04 02:49:04;;;;;;;1.40;0.90;;;;;;;8.52;63.29;98905.91;4993931;28;96809;-51
2024/01/04 02:51:29;;;;;;;2.40;1.10;;;;;;;8.47;63.13;98904.75;4993895;28;99341;-51
2024/01/04 02:53:56;;;;;;;1.10;1.00;;;;;;;8.39;63.20;98912.28;4997189;28;97167;-51
2024/01/04 02:56:21;;;;;;;1.33;1.23;;;;;;;8.36;63.50;98927.13;4994851;28;97045;-51
2024/01/04 02:58:47;;;;;;;0.77;0.77;;;;;;;8.34;63.21;98926.19;4992773;28;97619;-51
2024/01/04 03:01:19;;;;;;;0.80;0.70;;;;;;;8.30;63.10;98934.81;4994415;28;97244;-51
2024/01/04 03:03:45;;;;;;;1.63;1.17;;;;;;;8.21;63.12;98943.56;4994063;28;97081;-51
2024/01/04 03:06:11;;;;;;;0.80;0.80;;;;;;;8.12;62.94;98941.25;4992102;28;96992;-51
2024/01/04 03:08:36;;;;;;;1.07;0.80;;;;;;;8.03;63.27;98950.00;4994247;28;97369;-51
2024/01/04 03:11:01;;;;;;;0.90;0.87;;;;;;;7.95;63.04;98960.25;4996529;28;110936;-50
2024/01/04 03:13:27;;;;;;;1.00;0.90;;;;;;;7.92;63.07;98957.84;4995327;28;97579;-51
2024/01/04 03:15:52;;;;;;;0.60;0.60;;;;;;;7.90;63.34;98963.13;4994144;28;97018;-51
2024/01/04 03:18:17;;;;;;;0.60;0.50;;;;;;;7.88;63.33;98971.19;4994694;28;97511;-51
2024/01/04 03:20:42;;;;;;;1.00;0.70;;;;;;;7.87;63.05;98980.72;4990543;28;105358;-51
2024/01/04 03:23:08;;;;;;;0.63;0.63;;;;;;;7.88;63.03;98973.97;4993686;28;97027;-52
2024/01/04 03:25:33;;;;;;;0.70;0.70;;;;;;;7.87;62.96;98980.72;4993884;28;96766;-51
2024/01/04 03:27:58;;;;;;;0.60;0.50;;;;;;;7.81;62.95;98989.84;4993821;28;106618;-51
2024/01/04 03:30:24;;;;;;;1.47;0.90;;;;;;;7.70;62.89;98992.16;4990288;28;100563;-51
2024/01/04 03:32:49;;;;;;;1.87;0.60;;;;;;;7.65;63.22;98996.50;4992663;28;96765;-51
2024/01/04 03:35:14;;;;;;;0.80;0.47;;;;;;;7.65;63.12;99002.00;4994128;28;99858;-51
2024/01/04 03:37:40;;;;;;;0.60;0.57;;;;;;;7.65;63.22;99017.78;4989947;28;97578;-51
2024/01/04 03:40:06;;;;;;;0.60;0.40;;;;;;;7.58;62.82;99023.94;4991671;28;96645;-50
2024/01/04 03:42:32;;;;;;;4.73;0.67;;;;;;;7.52;62.84;99028.84;4993053;28;96924;-51
2024/01/04 03:44:58;;;;;;;0.60;0.40;;;;;;;7.46;62.63;99026.22;4997897;28;96877;-51
2024/01/04 03:47:23;;;;;;;2.03;0.40;;;;;;;7.38;62.74;99038.38;4995734;28;98379;-51
2024/01/04 03:49:48;;;;;;;1.77;0.40;;;;;;;7.29;62.75;99031.31;4992223;28;97532;-51
2024/01/04 03:52:14;;;;;;;0.60;0.50;;;;;;;7.22;62.63;99036.75;4992065;28;96989;-51
2024/01/04 03:54:39;;;;;;;1.77;0.50;;;;;;;7.15;62.65;99042.91;4992039;28;97284;-51
2024/01/04 03:57:04;;;;;;;0.60;0.40;;;;;;;7.11;62.61;99042.47;4993301;28;110467;-52
2024/01/04 03:59:30;;;;;;;1.10;0.50;;;;;;;7.09;62.59;99054.00;4990967;28;97285;-51
2024/01/04 04:01:56;;;;;;;0.50;0.40;;;;;;;7.06;62.54;99041.31;4993892;28;97485;-51
2024/01/04 04:04:21;;;;;;;2.47;0.60;;;;;;;7.04;62.49;99050.09;4996119;28;97154;-51
2024/01/04 04:06:47;;;;;;;0.63;0.47;;;;;;;7.03;62.52;99053.38;4991009;28;97040;-51
2024/01/04 04:09:12;;;;;;;5.00;0.70;;;;;;;7.00;62.27;99062.69;4992060;28;97122;-51
2024/01/04 04:11:37;;;;;;;1.23;0.60;;;;;;;6.93;62.29;99055.81;4990407;28;96975;-51
2024/01/04 04:14:03;;;;;;;1.10;0.47;;;;;;;6.93;62.48;99069.56;4992661;28;97194;-51
2024/01/04 04:16:28;;;;;;;1.13;0.40;;;;;;;6.95;62.18;99080.78;4990999;28;97268;-51
2024/01/04 04:18:53;;;;;;;0.73;0.43;;;;;;;6.97;62.20;99094.72;4996462;28;97096;-51
2024/01/04 04:21:23;;;;;;;2.30;0.60;;;;;;;6.96;61.95;99081.53;4994198;28;96943;-51
2024/01/04 04:23:50;;;;;;;0.70;0.30;;;;;;;6.93;62.00;99094.31;4993765;28;97148;-51
2024/01/04 04:26:21;;;;;;;0.53;0.40;;;;;;;6.82;61.52;99078.03;4992425;28;97087;-51
2024/01/04 04:28:48;;;;;;;0.50;0.40;;;;;;;6.83;61.81;99087.75;4988294;28;97103;-51
2024/01/04 04:31:14;;;;;;;1.17;0.40;;;;;;;6.85;61.82;99087.94;4992188;28;96921;-51
2024/01/04 04:33:40;;;;;;;1.07;0.40;;;;;;;6.85;61.85;99103.72;4990965;28;96754;-51
2024/01/04 04:36:06;;;;;;;1.83;0.40;;;;;;;6.87;61.67;99092.94;4991696;28;97189;-51
2024/01/04 04:38:33;;;;;;;1.53;0.40;;;;;;;6.81;61.54;99106.78;4993928;28;97247;-51
2024/01/04 04:40:59;;;;;;;1.73;0.70;;;;;;;6.83;61.44;99111.75;4991342;28;96714;-51
2024/01/04 04:43:24;;;;;;;0.60;0.40;;;;;;;6.84;61.45;99116.72;4991517;28;98117;-51
2024/01/04 04:45:49;;;;;;;0.97;0.40;;;;;;;6.87;61.23;99118.44;4993442;28;97194;-51
2024/01/04 04:48:15;;;;;;;1.00;0.40;;;;;;;6.80;61.22;99119.03;4990398;28;108228;-51
2024/01/04 04:50:40;;;;;;;1.53;0.50;;;;;;;6.77;61.28;99133.09;4991862;28;97057;-51
2024/01/04 04:53:05;;;;;;;0.70;0.50;;;;;;;6.73;61.06;99144.41;4990820;28;96817;-50
2024/01/04 04:55:32;;;;;;;1.00;0.50;;;;;;;6.67;61.02;99137.50;4991005;28;107882;-51
2024/01/04 04:57:57;;;;;;;1.47;0.50;;;;;;;6.62;60.93;99141.84;4993359;28;96587;-51
2024/01/04 05:00:22;;;;;;;0.57;0.40;;;;;;;6.61;60.95;99139.63;4996130;28;97036;-51
2024/01/04 05:02:48;;;;;;;0.60;0.40;;;;;;;6.62;61.11;99139.09;4998642;28;97423;-51
2024/01/04 05:05:13;;;;;;;1.10;0.60;;;;;;;6.62;60.90;99152.09;4996151;28;109052;-51
2024/01/04 05:07:38;;;;;;;1.90;0.40;;;;;;;6.66;61.21;99147.00;4998027;28;97169;-51
2024/01/04 05:10:04;;;;;;;1.80;0.50;;;;;;;6.66;60.72;99152.50;4994829;28;96844;-51
2024/01/04 05:12:31;;;;;;;3.07;0.70;;;;;;;6.62;60.62;99161.06;4993976;28;96684;-51
2024/01/04 05:14:58;;;;;;;1.47;0.47;;;;;;;6.57;60.50;99161.88;4993967;28;97509;-51
2024/01/04 05:17:23;;;;;;;0.70;0.40;;;;;;;6.58;60.53;99159.88;4994463;28;98372;-51
2024/01/04 05:19:49;;;;;;;0.80;0.40;;;;;;;6.59;60.58;99175.81;4992777;28;97008;-51
2024/01/04 05:22:14;;;;;;;1.60;0.30;;;;;;;6.62;60.46;99185.06;4998020;28;96829;-51
2024/01/04 05:24:39;;;;;;;1.30;0.50;;;;;;;6.65;60.49;99184.00;4997573;28;98766;-51
2024/01/04 05:27:04;;;;;;;0.57;0.40;;;;;;;6.64;60.24;99190.75;4992634;28;105991;-51
2024/01/04 05:29:30;;;;;;;1.70;0.60;;;;;;;6.62;60.37;99194.03;4992066;28;97398;-51
2024/01/04 05:31:55;;;;;;;0.70;0.40;;;;;;;6.59;60.46;99208.78;4995816;28;97391;-51
2024/01/04 05:34:20;;;;;;;6.10;0.60;;;;;;;6.57;60.26;99207.84;4993283;28;97934;-51
2024/01/04 05:36:46;;;;;;;0.70;0.40;;;;;;;6.56;60.37;99236.59;4993357;28;107808;-51
2024/01/04 05:39:11;;;;;;;1.77;0.50;;;;;;;6.53;60.34;99224.63;4995172;28;96652;-51
2024/01/04 05:41:37;;;;;;;0.50;0.40;;;;;;;6.48;60.28;99230.94;4995393;28;96685;-52
2024/01/04 05:44:03;;;;;;;0.80;0.80;;;;;;;6.41;60.46;99239.81;4995831;28;107587;-51
2024/01/04 05:46:28;;;;;;;1.13;0.40;;;;;;;6.36;60.61;99243.38;4994495;28;96767;-51
2024/01/04 05:48:54;;;;;;;1.67;0.40;;;;;;;6.34;60.66;99240.41;4996511;28;97098;-51
2024/01/04 05:51:20;;;;;;;0.70;0.40;;;;;;;6.37;60.85;99250.34;4995329;28;97172;-52
2024/01/04 05:53:46;;;;;;;0.50;0.40;;;;;;;6.38;60.73;99256.56;4993143;28;108487;-51
2024/01/04 05:56:11;;;;;;;0.73;0.50;;;;;;;6.35;60.63;99265.88;4994948;28;107233;-51
2024/01/04 05:58:36;;;;;;;0.60;0.40;;;;;;;6.32;60.67;99262.91;4993211;28;96733;-51
2024/01/04 06:01:01;;;;;;;0.97;0.40;;;;;;;6.31;60.65;99271.63;4994982;28;100673;-51
2024/01/04 06:03:27;;;;;;;0.50;0.40;;;;;;;6.24;60.55;99283.97;4995717;28;97757;-51
2024/01/04 06:05:52;;;;;;;1.63;0.33;;;;;;;6.16;60.52;99287.81;4990539;28;98272;-51
2024/01/04 06:08:17;;;;;;;1.70;0.40;;;;;;;6.10;60.74;99293.41;4993597;28;96970;-51
2024/01/04 06:10:43;;;;;;;0.60;0.40;;;;;;;6.03;60.85;99307.69;4996811;28;96874;-51
2024/01/04 06:13:08;;;;;;;1.03;0.40;;;;;;;6.05;60.89;99310.66;4991436;28;105684;-52
2024/01/04 06:15:34;;;;;;;0.50;0.40;;;;;;;6.09;60.70;99321.34;4996816;28;97248;-51
2024/01/04 06:17:59;;;;;;;0.97;0.40;;;;;;;6.08;60.72;99320.63;4995379;28;96765;-51
2024/01/04 06:20:25;;;;;;;0.50;0.40;;;;;;;6.05;60.82;99342.84;4994257;28;97115;-51
2024/01/04 06:22:51;;;;;;;1.33;0.77;;;;;;;6.05;61.10;99342.84;4992596;28;97802;-51
2024/01/04 06:25:16;;;;;;;1.13;0.30;;;;;;;6.03;61.05;99350.88;4991896;28;98241;-51
2024/01/04 06:27:41;;;;;;;1.07;0.50;;;;;;;5.98;60.93;99349.69;4994698;28;97038;-51
2024/01/04 06:30:07;;;;;;;0.40;0.30;;;;;;;5.96;61.13;99376.16;4994886;28;98368;-51
2024/01/04 06:32:33;;;;;;;1.80;0.60;;;;;;;5.96;61.11;99381.63;4992693;28;97320;-51
2024/01/04 06:34:58;;;;;;;0.93;0.30;;;;;;;5.86;61.04;99386.75;4997231;28;96663;-51
2024/01/04 06:37:23;;;;;;;0.80;0.33;;;;;;;5.68;61.16;99397.63;4996312;28;96762;-51
2024/01/04 06:39:50;;;;;;;0.50;0.40;;;;;;;5.64;61.43;99397.19;4993713;28;97015;-51
2024/01/04 06:42:16;;;;;;;0.53;0.30;;;;;;;5.53;61.30;99398.78;4993727;28;98007;-51
2024/01/04 06:44:41;;;;;;;1.10;0.50;;;;;;;5.43;61.48;99402.34;4994313;28;98367;-51
2024/01/04 06:47:07;;;;;;;1.67;0.67;;;;;;;5.37;61.76;99405.13;4997026;28;96868;-51
2024/01/04 06:49:33;;;;;;;0.60;0.40;;;;;;;5.38;61.60;99409.38;4995337;28;97246;-51
2024/01/04 06:51:58;;;;;;;0.83;0.40;;;;;;;5.33;61.63;99429.34;4992879;28;96896;-51
2024/01/04 06:54:23;;;;;;;0.90;0.50;;;;;;;5.33;61.75;99423.09;4993663;28;97083;-51
2024/01/04 06:56:49;;;;;;;1.37;0.50;;;;;;;5.36;61.80;99431.06;4995493;28;97247;-52
2024/01/04 06:59:14;;;;;;;0.50;0.40;;;;;;;5.35;61.58;99435.06;4994307;28;96835;-51
2024/01/04 07:01:39;;;;;;;1.83;0.50;;;;;;;5.33;61.70;99432.09;4996268;28;97137;-52
2024/01/04 07:04:05;;;;;;;0.53;0.40;;;;;;;5.31;61.66;99445.56;4991990;28;97253;-52
2024/01/04 07:06:30;;;;;;;1.57;0.70;;;;;;;5.21;61.50;99449.88;4992214;28;96688;-52
2024/01/04 07:08:55;;;;;;;0.70;0.60;;;;;;;5.18;61.86;99461.84;4996600;28;97248;-52
2024/01/04 07:11:20;;;;;;;1.63;0.77;;;;;;;5.09;61.80;99453.16;4993975;28;96790;-52
2024/01/04 07:13:46;;;;;;;0.80;0.50;;;;;;;5.01;61.98;99472.16;4993048;28;108439;-52
2024/01/04 07:16:11;;;;;;;1.20;0.70;;;;;;;4.97;62.10;99476.41;4995220;28;96950;-51
2024/01/04 07:18:37;;;;;;;0.80;0.60;;;;;;;4.91;61.88;99481.91;4992171;28;97291;-51
2024/01/04 07:21:02;;;;;;;1.20;0.50;;;;;;;4.83;61.92;99478.22;4994433;28;97234;-52
2024/01/04 07:23:27;;;;;;;2.10;0.80;;;;;;;4.78;62.02;99485.22;4993240;28;97421;-51
2024/01/04 07:25:55;;;;;;;2.40;0.60;;;;;;;4.72;61.97;99495.44;4996074;28;97300;-51
2024/01/04 07:28:20;;;;;;;0.97;0.50;;;;;;;4.73;62.12;99498.91;4995337;28;97482;-51
2024/01/04 07:30:46;;;;;;;0.53;0.53;;;;;;;4.70;62.08;99499.91;4993760;28;97362;-51
2024/01/04 07:33:12;;;;;;;1.67;0.67;;;;;;;4.70;62.03;99519.09;4993296;28;97605;-51
2024/01/04 07:35:38;;;;;;;1.03;0.50;;;;;;;4.71;62.11;99526.06;4994589;28;97157;-51
2024/01/04 07:38:03;;;;;;;2.77;0.70;;;;;;;4.76;62.06;99530.81;4993432;28;96740;-51
2024/01/04 07:40:28;;;;;;;3.07;0.53;;;;;;;4.77;62.04;99537.78;4994254;28;97361;-51
2024/01/04 07:42:54;;;;;;;0.80;0.40;;;;;;;4.79;61.94;99546.25;4992878;28;97141;-52
2024/01/04 07:45:19;;;;;;;0.60;0.50;;;;;;;4.86;62.29;99555.94;4995005;28;97491;-51
2024/01/04 07:47:45;;;;;;;0.60;0.57;;;;;;;4.87;61.81;99560.91;4994526;28;96783;-51
2024/01/04 07:50:11;;;;;;;1.13;0.53;;;;;;;4.87;62.04;99563.66;4994066;28;96818;-51
2024/01/04 07:52:38;;;;;;;1.00;0.77;;;;;;;4.88;62.17;99572.63;4993272;28;97043;-51
2024/01/04 07:55:03;;;;;;;0.60;0.40;;;;;;;4.94;61.78;99574.09;4993356;28;97210;-51
2024/01/04 07:57:29;;;;;;;0.60;0.60;;;;;;;4.96;61.92;99574.34;4993541;28;96955;-51
2024/01/04 07:59:54;;;;;;;0.50;0.50;;;;;;;4.97;61.93;99573.09;4993124;28;98691;-51
2024/01/04 08:02:19;;;;;;;1.57;0.60;;;;;;;5.00;61.94;99583.03;4992933;28;97623;-51
2024/01/04 08:04:45;;;;;;;0.87;0.40;;;;;;;5.01;62.17;99595.50;4994301;28;97300;-51
2024/01/04 08:07:10;;;;;;;0.63;0.53;;;;;;;5.05;62.20;99593.25;4993827;28;96895;-51
2024/01/04 08:09:35;;;;;;;0.57;0.47;;;;;;;5.08;61.92;99597.72;4993455;28;98751;-51
2024/01/04 08:12:01;;;;;;;0.80;0.63;;;;;;;5.09;61.91;99593.72;4992989;28;97208;-51
2024/01/04 08:14:26;;;;;;;0.50;0.40;;;;;;;5.01;61.73;99598.25;4994031;28;97556;-51
2024/01/04 08:16:52;;;;;;;0.87;0.50;;;;;;;4.97;61.76;99608.72;4994425;28;97151;-51
2024/01/04 08:19:17;;;;;;;1.77;0.70;;;;;;;4.97;62.00;99619.69;4991221;28;97341;-51
2024/01/04 08:21:43;;;;;;;0.80;0.70;;;;;;;4.93;62.10;99632.88;4990483;28;97086;-51
2024/01/04 08:24:09;;;;;;;1.27;0.60;;;;;;;4.92;62.03;99631.41;4991266;28;97449;-51
2024/01/04 08:26:40;;;;;;;2.10;0.60;;;;;;;4.94;62.00;99636.38;4996254;28;96984;-51
2024/01/04 08:29:05;;;;;;;1.43;0.70;;;;;;;4.89;62.01;99643.34;4990663;28;98130;-51
2024/01/04 08:31:32;;;;;;;1.27;0.90;;;;;;;4.88;62.13;99652.09;4993292;28;97161;-51
2024/01/04 08:33:58;;;;;;;2.90;0.90;;;;;;;4.90;62.01;99664.03;4993695;28;97135;-51
2024/01/04 08:36:23;;;;;;;0.80;0.73;;;;;;;4.94;62.05;99667.28;5002214;28;96733;-51
2024/01/04 08:38:49;;;;;;;0.70;0.60;;;;;;;4.98;62.00;99664.25;4996608;28;96829;-51
2024/01/04 08:41:14;;;;;;;1.30;0.90;;;;;;;4.99;61.96;99669.25;4997119;28;97139;-51
2024/01/04 08:43:39;;;;;;;1.40;1.23;;;;;;;4.98;61.89;99672.47;4995950;28;97204;-51
2024/01/04 08:46:05;;;;;;;2.00;1.83;;;;;;;4.96;61.91;99680.47;4996734;28;97402;-51
2024/01/04 08:48:30;;;;;;;1.93;1.83;;;;;;;4.89;62.05;99686.47;4995043;28;97255;-51
2024/01/04 08:50:55;;;;;;;3.67;2.13;;;;;;;4.88;62.19;99684.97;4994584;28;109012;-51
2024/01/04 08:53:21;;;;;;;2.00;1.20;;;;;;;4.87;62.08;99686.19;4995982;28;97028;-51
2024/01/04 08:55:48;;;;;;;1.77;1.57;;;;;;;4.82;62.08;99682.25;4994647;28;96887;-51
2024/01/04 08:58:14;;;;;;;1.80;1.30;;;;;;;4.82;62.02;99689.72;4995736;28;96815;-51
2024/01/04 09:00:39;;;;;;;4.90;1.90;;;;;;;4.80;62.06;99690.19;4998240;28;97506;-51
2024/01/04 09:03:04;;;;;;;2.27;2.13;;;;;;;4.82;62.38;99688.44;4997790;28;96774;-53
2024/01/04 09:05:30;;;;;;;1.80;1.70;;;;;;;4.88;62.08;99691.19;4997588;28;96867;-51
2024/01/04 09:07:55;;;;;;;2.67;1.40;;;;;;;4.92;62.17;99699.91;4997590;28;97433;-51
2024/01/04 09:10:20;;;;;;;1.33;1.23;;;;;;;4.90;61.98;99710.63;4994354;28;100849;-51
2024/01/04 09:12:47;;;;;;;2.70;1.03;;;;;;;4.88;62.01;99706.88;4996772;28;97086;-51
2024/01/04 09:15:12;;;;;;;1.53;1.27;;;;;;;4.86;61.99;99712.88;4993081;28;97121;-51
2024/01/04 09:17:37;;;;;;;2.27;1.60;;;;;;;4.81;62.04;99719.09;4993799;28;96700;-51
2024/01/04 09:20:03;;;;;;;1.30;1.20;;;;;;;4.80;61.84;99732.06;4994720;28;104305;-51
2024/01/04 09:22:28;;;;;;;3.33;2.77;;;;;;;4.79;61.82;99738.03;4994940;28;96653;-51
2024/01/04 09:24:55;;;;;;;2.37;2.17;;;;;;;4.78;62.03;99734.53;4998913;28;96938;-51
2024/01/04 09:27:22;;;;;;;2.77;2.00;;;;;;;4.83;62.01;99749.50;4992541;28;97248;-51
2024/01/04 09:29:47;;;;;;;1.40;1.30;;;;;;;4.87;62.04;99743.75;4995449;28;97185;-51
2024/01/04 09:32:13;;;;;;;1.63;1.30;;;;;;;4.89;61.71;99772.16;4997412;28;96874;-51
2024/01/04 09:34:38;;;;;;;3.60;2.67;;;;;;;4.93;62.30;99769.91;4995092;28;96706;-51
2024/01/04 09:37:04;;;;;;;3.37;2.73;;;;;;;4.94;61.95;99771.41;4994796;28;96927;-51
2024/01/04 09:39:29;;;;;;;4.00;2.33;;;;;;;4.97;61.80;99775.91;4996652;28;103848;-51
2024/01/04 09:41:56;;;;;;;1.53;1.43;;;;;;;4.99;61.72;99783.63;4997301;28;96754;-51
2024/01/04 09:44:21;;;;;;;4.10;1.10;;;;;;;5.03;61.87;99787.63;4996816;28;96862;-51
2024/01/04 09:46:48;;;;;;;1.13;0.90;;;;;;;5.06;61.81;99789.34;4994108;28;97286;-51
2024/01/04 09:49:14;;;;;;;1.43;0.90;;;;;;;5.06;61.55;99796.84;4991873;28;96750;-51
2024/01/04 09:51:41;;;;;;;3.03;1.10;;;;;;;5.03;61.30;99795.84;4994982;28;97593;-51
2024/01/04 09:54:11;;;;;;;0.70;0.70;;;;;;;5.02;61.71;99799.09;4987779;28;96954;-51
2024/01/04 09:56:39;;;;;;;1.23;1.13;;;;;;;5.03;61.70;99806.81;4996079;28;96719;-52
2024/01/04 09:59:05;;;;;;;1.77;1.00;;;;;;;5.03;61.75;99817.78;4994664;28;97152;-52
2024/01/04 10:01:36;;;;;;;0.80;0.80;;;;;;;5.07;61.39;99826.47;4996594;28;96861;-51
2024/01/04 10:04:10;;;;;;;0.70;0.50;;;;;;;5.10;61.31;99836.47;4994714;28;97470;-51
2024/01/04 10:06:38;;;;;;;1.30;0.70;;;;;;;5.10;61.54;99833.72;4993843;28;97550;-51
2024/01/04 10:09:15;;;;;;;4.00;1.00;;;;;;;5.12;61.39;99833.22;4994974;28;97140;-51
2024/01/04 10:11:56;;;;;;;1.57;0.70;;;;;;;5.09;61.46;99834.19;4994651;28;97080;-51
2024/01/04 10:14:26;;;;;;;1.03;1.00;;;;;;;5.08;61.41;99844.44;4995581;28;96961;-51
2024/01/04 10:16:52;;;;;;;1.47;0.70;;;;;;;5.04;61.21;99859.63;4993843;28;97747;-51
2024/01/04 10:19:17;;;;;;;1.47;0.70;;;;;;;4.95;61.13;99868.84;4999176;28;98327;-51
2024/01/04 10:21:43;;;;;;;0.70;0.70;;;;;;;4.87;61.50;99858.84;4997444;28;97155;-51
2024/01/04 10:24:13;;;;;;;1.93;0.70;;;;;;;4.75;61.37;99867.06;4994699;28;97054;-51
2024/01/04 10:26:39;;;;;;;0.80;0.80;;;;;;;4.72;61.36;99865.28;4994101;28;97144;-51
2024/01/04 10:29:06;;;;;;;0.70;0.47;;;;;;;4.64;61.33;99877.22;4992139;28;98589;-51
2024/01/04 10:31:32;;;;;;;0.90;0.80;;;;;;;4.61;61.27;99878.19;4995875;28;97201;-51
2024/01/04 10:34:00;;;;;;;1.93;0.83;;;;;;;4.63;61.56;99887.41;4996110;28;97167;-52
2024/01/04 10:36:29;;;;;;;1.57;0.80;;;;;;;4.65;61.57;99893.16;4994591;28;98149;-51
2024/01/04 10:38:59;;;;;;;1.87;0.80;;;;;;;4.69;61.42;99898.41;4992718;28;97579;-52
2024/01/04 10:41:28;;;;;;;2.97;0.97;;;;;;;4.70;61.41;99908.88;4995013;28;96790;-51
2024/01/04 10:44:05;;;;;;;0.80;0.80;;;;;;;4.67;61.17;99900.88;4994270;28;96937;-52
2024/01/04 10:46:34;;;;;;;2.10;0.80;;;;;;;4.65;61.27;99904.09;4992462;28;97546;-51
2024/01/04 10:49:00;;;;;;;2.40;1.00;;;;;;;4.67;61.32;99906.34;4993567;28;99187;-51
2024/01/04 10:51:29;;;;;;;0.83;0.83;;;;;;;4.71;61.36;99920.56;4995072;28;97580;-51
2024/01/04 10:54:00;;;;;;;1.80;0.50;;;;;;;4.74;61.39;99912.13;4994626;28;96911;-51
2024/01/04 10:56:32;;;;;;;3.17;1.03;;;;;;;4.78;61.28;99925.59;4994606;28;97551;-51
2024/01/04 10:58:59;;;;;;;1.73;0.70;;;;;;;4.77;61.26;99924.09;4992854;28;96991;-51
2024/01/04 11:01:25;;;;;;;0.50;0.47;;;;;;;4.79;60.72;99927.84;4993014;28;96639;-51
2024/01/04 11:03:54;;;;;;;1.10;0.63;;;;;;;4.83;61.08;99949.53;4996810;28;97085;-51
2024/01/04 11:06:21;;;;;;;0.50;0.50;;;;;;;4.92;61.27;99938.34;4993514;28;98807;-51
2024/01/04 11:08:48;;;;;;;0.60;0.50;;;;;;;4.99;61.08;99934.38;4992219;28;96718;-51
2024/01/04 11:11:14;;;;;;;1.00;0.60;;;;;;;4.99;61.04;99935.13;4996203;28;97152;-51
2024/01/04 11:13:41;;;;;;;4.43;0.70;;;;;;;5.07;60.83;99936.13;4994569;28;96976;-51
2024/01/04 11:16:26;;;;;;;1.97;0.50;;;;;;;5.16;60.45;99935.91;4995261;28;97281;-51
2024/01/04 11:19:17;;;;;;;0.60;0.47;;;;;;;5.29;60.68;99935.44;4992178;28;97482;-51
2024/01/04 11:22:03;;;;;;;0.80;0.50;;;;;;;5.41;60.41;99936.94;4995769;28;97147;-51
2024/01/04 11:24:43;;;;;;;0.93;0.60;;;;;;;5.42;60.23;99947.41;4994574;28;96956;-51
2024/01/04 11:27:14;;;;;;;2.60;0.80;;;;;;;5.35;60.35;99947.13;4994195;28;97365;-51
2024/01/04 11:29:41;;;;;;;1.80;0.90;;;;;;;5.19;59.80;99945.88;4993539;28;97186;-51
2024/01/04 11:32:07;;;;;;;1.00;0.90;;;;;;;5.08;60.22;99958.81;4996085;28;97881;-51
2024/01/04 11:34:33;;;;;;;2.33;2.13;;;;;;;5.01;60.24;99960.06;4992899;28;97158;-51
2024/01/04 11:37:28;;;;;;;2.50;2.00;;;;;;;4.92;59.82;99963.00;4993821;28;97229;-51